Engelberg, Switzerland
Current Conditions -  °F | °C
As of 3:50 PM on Monday 24 Nov 2014 (Local Time) from LSMA Reporting Station
Few Clouds Few Clouds  
Wind Chill: 55°   Ceiling: Unl
Heat Index: 55°   Visibility: 6mi
Dew Point: 48°   Wind: 2mph
Humidity: 77%   Direction: 250°WSW
Pressure: 30.21"   Gusts: NA
Location:  46.82°N, 8.4°E
Report Text: LSMA 241450Z 25002KT 9999 FEW110 13/09 Q1023 RMK BLU
Loading
Personal Weather Stations






























Interactive Weather Map New forecast layout! Learn more

10-Day Weather Forecast

Advertisements
Track Severe Weather on mobile